^^
Saratoga-Weather Station Historical Data
Daily Summary for May 16, 2022 Units:  Metric    English   Both
Daily Weekly Monthly Yearly Custom
  High: Low: Average:
Temperature: 22.7 °C 14.7 °C 18.3 °C
Dew Point: 16.4 °C 12.4 °C 15 °C
Humidity: 96% 62% 82%
Wind Speed: 24.1km/h 0km/h 3.4km/h
Wind Gust: 24.1km/h - -
Wind- - West
Pressure: 1019.6 hPa 1012.2 hPa -
Precipitation: 3.3 mm    
Historical Graphs
 
 
Tabular Data for May 16, 2022
Time Temperature Dew Point Pressure Wind Wind Speed Wind Gust Humidity Rainfall Rate (Hourly) solar
00:04 17.9 °C 13 °C 1013.2 hPa Calm     73% 0.0 mm 0 W/m2
00:09 17.8 °C 12.9 °C 1013.2 hPa SW 1.4 km/h 3.2 km/h 73% 0.0 mm 0 W/m2
00:14 17.8 °C 12.9 °C 1013.2 hPa Calm   1.6 km/h 73% 0.0 mm 0 W/m2
00:24 17.6 °C 12.7 °C 1012.9 hPa Calm     73% 0.0 mm 0 W/m2
00:29 17.6 °C 12.7 °C 1012.9 hPa Calm     73% 0.0 mm 0 W/m2
00:34 17.4 °C 12.5 °C 1012.9 hPa Calm   1.6 km/h 73% 0.0 mm 0 W/m2
00:39 17.4 °C 12.5 °C 1013.2 hPa Calm   1.6 km/h 73% 0.0 mm 0 W/m2
00:44 17.4 °C 12.5 °C 1013.2 hPa SW 1.4 km/h 3.2 km/h 73% 0.0 mm 0 W/m2
00:49 17.3 °C 12.4 °C 1013.2 hPa Calm   1.6 km/h 73% 0.0 mm 0 W/m2
00:54 17.3 °C 12.6 °C 1013.2 hPa Calm     74% 0.0 mm 0 W/m2
00:59 17.3 °C 12.6 °C 1012.9 hPa Calm   3.2 km/h 74% 0.0 mm 0 W/m2
01:04 17.3 °C 12.6 °C 1012.9 hPa Calm     74% 0.0 mm 0 W/m2
01:09 17.3 °C 12.6 °C 1012.9 hPa SW 1.4 km/h 3.2 km/h 74% 0.0 mm 0 W/m2
01:14 17.3 °C 12.6 °C 1012.9 hPa SW 1.4 km/h 1.6 km/h 74% 0.0 mm 0 W/m2
01:19 17.3 °C 12.6 °C 1012.9 hPa Calm   1.6 km/h 74% 0.0 mm 0 W/m2
01:24 17.3 °C 12.4 °C 1012.9 hPa SW 1.4 km/h 1.6 km/h 73% 0.0 mm 0 W/m2
01:29 17.3 °C 12.6 °C 1012.9 hPa Calm     74% 0.0 mm 0 W/m2
01:34 17.5 °C 12.4 °C 1013.5 hPa WSW 7.9 km/h 14.5 km/h 72% 0.0 mm 0 W/m2
01:39 18.6 °C 12.8 °C 1013.9 hPa WNW 14.3 km/h 19.3 km/h 69% 0.0 mm 0 W/m2
01:49 18.8 °C 14.1 °C 1013.5 hPa West 3.2 km/h 9.7 km/h 74% 0.0 mm 0 W/m2
01:54 18.4 °C 14.3 °C 1013.5 hPa WSW 1.4 km/h 1.6 km/h 77% 0.0 mm 0 W/m2
01:59 18.1 °C 14.8 °C 1013.5 hPa Calm   1.6 km/h 81% 0.0 mm 0 W/m2
02:04 17.9 °C 14.8 °C 1013.2 hPa West 3.2 km/h 3.2 km/h 82% 2.3 mm 0 W/m2
02:09 17.6 °C 15 °C 1013.2 hPa SW 1.4 km/h 4.8 km/h 85% 2.8 mm 0 W/m2
02:14 17.2 °C 14.8 °C 1012.9 hPa Calm   3.2 km/h 86% 2.8 mm 0 W/m2
02:19 16.9 °C 14.9 °C 1012.9 hPa SW 1.4 km/h 4.8 km/h 88% 2.8 mm 0 W/m2
02:24 16.7 °C 14.9 °C 1012.9 hPa SW 1.4 km/h 1.6 km/h 89% 3.0 mm 0 W/m2
02:29 16.6 °C 14.8 °C 1012.9 hPa SW 3.2 km/h 4.8 km/h 89% 3.0 mm 0 W/m2
02:34 16.4 °C 14.8 °C 1012.9 hPa SW 1.4 km/h 3.2 km/h 90% 3.0 mm 0 W/m2
02:39 16.2 °C 14.6 °C 1012.9 hPa SSW 1.4 km/h 4.8 km/h 90% 3.0 mm 0 W/m2
02:44 16.1 °C 14.6 °C 1012.9 hPa Calm   1.6 km/h 91% 3.0 mm 0 W/m2
02:49 15.9 °C 14.4 °C 1012.9 hPa Calm     91% 3.0 mm 0 W/m2
02:54 15.9 °C 14.6 °C 1012.9 hPa Calm   1.6 km/h 92% 3.0 mm 0 W/m2
02:59 15.8 °C 14.5 °C 1012.9 hPa SSW 1.4 km/h 3.2 km/h 92% 3.0 mm 0 W/m2
03:04 15.7 °C 14.4 °C 1012.9 hPa Calm   3.2 km/h 92% 0.5 mm 0 W/m2
03:09 15.6 °C 14.3 °C 1012.9 hPa Calm   1.6 km/h 92% 0.2 mm 0 W/m2
03:15 15.6 °C 14.3 °C 1013.2 hPa Calm   3.2 km/h 92% 0.2 mm 0 W/m2
03:20 15.4 °C 14.3 °C 1013.2 hPa Calm     93% 0.2 mm 0 W/m2
03:25 15.4 °C 14.3 °C 1013.2 hPa Calm     93% 0.0 mm 0 W/m2
03:30 15.4 °C 14.3 °C 1013.2 hPa Calm   1.6 km/h 93% 0.0 mm 0 W/m2
03:35 15.4 °C 14.3 °C 1013.2 hPa Calm     93% 0.0 mm 0 W/m2
03:40 15.4 °C 14.3 °C 1012.9 hPa Calm   1.6 km/h 93% 0.0 mm 0 W/m2
03:45 15.3 °C 14.3 °C 1012.9 hPa Calm     94% 0.0 mm 0 W/m2
03:50 15.3 °C 14.3 °C 1012.9 hPa Calm     94% 0.0 mm 0 W/m2
03:55 15.3 °C 14.3 °C 1012.9 hPa Calm     94% 0.0 mm 0 W/m2
04:00 15.3 °C 14.3 °C 1012.9 hPa Calm     94% 0.0 mm 0 W/m2
04:05 15.3 °C 14.3 °C 1012.9 hPa Calm     94% 0.0 mm 0 W/m2
04:10 15.3 °C 14.3 °C 1012.9 hPa Calm     94% 0.0 mm 0 W/m2
04:15 15.3 °C 14.3 °C 1012.9 hPa Calm     94% 0.0 mm 0 W/m2
04:20 15.3 °C 14.3 °C 1012.9 hPa Calm     94% 0.0 mm 0 W/m2
04:25 15.3 °C 14.3 °C 1012.9 hPa Calm     94% 0.0 mm 0 W/m2
04:30 15.3 °C 14.3 °C 1012.9 hPa Calm     94% 0.0 mm 0 W/m2
04:35 15.3 °C 14.5 °C 1012.9 hPa Calm   3.2 km/h 95% 0.0 mm 0 W/m2
04:40 15.3 °C 14.5 °C 1012.9 hPa Calm   1.6 km/h 95% 0.0 mm 0 W/m2
04:45 15.3 °C 14.5 °C 1012.5 hPa Calm   3.2 km/h 95% 0.0 mm 0 W/m2
04:50 15.3 °C 14.5 °C 1012.5 hPa Calm   1.6 km/h 95% 0.0 mm 0 W/m2
04:55 15.2 °C 14.4 °C 1012.5 hPa Calm     95% 0.0 mm 0 W/m2
05:00 15.2 °C 14.4 °C 1012.5 hPa Calm   1.6 km/h 95% 0.0 mm 0 W/m2
05:05 15.2 °C 14.4 °C 1012.5 hPa Calm     95% 0.0 mm 0 W/m2
05:10 15.2 °C 14.4 °C 1012.5 hPa Calm     95% 0.0 mm 0 W/m2
05:15 15.2 °C 14.4 °C 1012.2 hPa Calm     95% 0.0 mm 0 W/m2
05:20 15.2 °C 14.4 °C 1012.2 hPa Calm     95% 0.0 mm 0 W/m2
05:25 15.2 °C 14.4 °C 1012.5 hPa Calm     95% 0.0 mm 0 W/m2
05:30 15.2 °C 14.4 °C 1012.5 hPa Calm     95% 0.0 mm 0 W/m2
05:35 15.2 °C 14.4 °C 1012.5 hPa Calm     95% 0.0 mm 0 W/m2
05:50 15.2 °C 14.4 °C 1012.5 hPa Calm     95% 0.0 mm 0 W/m2
05:55 15.2 °C 14.4 °C 1012.9 hPa Calm     95% 0.0 mm 0 W/m2
06:00 15.2 °C 14.4 °C 1012.9 hPa Calm     95% 0.0 mm 0 W/m2
06:15 14.9 °C 14.1 °C 1012.9 hPa Calm   1.6 km/h 95% 0.0 mm 7 W/m2
06:20 14.8 °C 14 °C 1012.9 hPa SW 1.4 km/h 1.6 km/h 95% 0.0 mm 9 W/m2
06:25 14.8 °C 14 °C 1012.9 hPa Calm     95% 0.0 mm 11 W/m2
06:30 14.8 °C 14 °C 1012.9 hPa Calm     95% 0.0 mm 12 W/m2
06:35 14.7 °C 13.9 °C 1012.9 hPa Calm     95% 0.0 mm 16 W/m2
06:40 14.7 °C 13.9 °C 1013.2 hPa Calm     95% 0.0 mm 21 W/m2
06:45 14.7 °C 13.9 °C 1013.2 hPa Calm     95% 0.0 mm 25 W/m2
06:50 14.7 °C 13.9 °C 1013.2 hPa Calm     95% 0.0 mm 25 W/m2
06:55 14.7 °C 13.9 °C 1013.2 hPa Calm     95% 0.0 mm 23 W/m2
07:00 14.8 °C 14.2 °C 1013.2 hPa SW 1.4 km/h 1.6 km/h 96% 0.0 mm 23 W/m2
07:05 14.8 °C 14.2 °C 1013.5 hPa Calm     96% 0.0 mm 30 W/m2
07:10 14.9 °C 14.3 °C 1013.5 hPa Calm     96% 0.0 mm 33 W/m2
07:15 15 °C 14.4 °C 1013.5 hPa Calm     96% 0.0 mm 91 W/m2
07:20 15.2 °C 14.6 °C 1013.5 hPa Calm   1.6 km/h 96% 0.0 mm 105 W/m2
07:25 15.3 °C 14.7 °C 1013.5 hPa SW 1.4 km/h 3.2 km/h 96% 0.0 mm 118 W/m2
07:30 15.4 °C 14.8 °C 1013.9 hPa Calm   1.6 km/h 96% 0.0 mm 135 W/m2
07:35 15.6 °C 15 °C 1013.9 hPa SW 3.2 km/h 3.2 km/h 96% 0.0 mm 146 W/m2
07:40 15.7 °C 15.1 °C 1013.9 hPa SW 1.4 km/h 1.6 km/h 96% 0.0 mm 160 W/m2
07:45 15.8 °C 15.2 °C 1013.9 hPa NNE 1.4 km/h 3.2 km/h 96% 0.0 mm 172 W/m2
07:50 15.9 °C 15.3 °C 1013.9 hPa Calm   1.6 km/h 96% 0.0 mm 188 W/m2
07:55 16.2 °C 15.6 °C 1013.9 hPa WNW 3.2 km/h 4.8 km/h 96% 0.0 mm 199 W/m2
08:00 16.4 °C 15.6 °C 1013.9 hPa NNE 1.4 km/h 1.6 km/h 95% 0.0 mm 204 W/m2
08:05 16.9 °C 15.9 °C 1013.9 hPa NE 3.2 km/h 4.8 km/h 94% 0.0 mm 148 W/m2
08:10 17.6 °C 15.8 °C 1014.2 hPa SSE 1.4 km/h 4.8 km/h 89% 0.0 mm 84 W/m2
08:15 18.2 °C 16 °C 1014.2 hPa NE 3.2 km/h 9.7 km/h 87% 0.0 mm 62 W/m2
08:20 18.5 °C 15.6 °C 1014.2 hPa NNE 4.7 km/h 9.7 km/h 83% 0.0 mm 62 W/m2
08:25 18.7 °C 15.6 °C 1014.2 hPa WNW 3.2 km/h 8 km/h 82% 0.0 mm 67 W/m2
08:30 18.7 °C 15.4 °C 1014.6 hPa WSW 1.4 km/h 4.8 km/h 81% 0.0 mm 60 W/m2
08:35 18.9 °C 15.8 °C 1014.6 hPa NNW 1.4 km/h 3.2 km/h 82% 0.0 mm 63 W/m2
08:40 19.1 °C 15.6 °C 1014.6 hPa NW 3.2 km/h 8 km/h 80% 0.0 mm 65 W/m2
08:45 19.1 °C 15.8 °C 1014.6 hPa NNW 4.7 km/h 9.7 km/h 81% 0.0 mm 69 W/m2
08:50 19.1 °C 15.8 °C 1014.6 hPa NW 13 km/h 14.5 km/h 81% 0.0 mm 69 W/m2
08:55 19.1 °C 15.6 °C 1014.6 hPa WNW 13 km/h 12.9 km/h 80% 0.0 mm 74 W/m2
09:00 19.1 °C 15.6 °C 1014.6 hPa NNW 3.2 km/h 19.3 km/h 80% 0.0 mm 72 W/m2
09:06 19.1 °C 15.8 °C 1014.6 hPa WNW 4.7 km/h 17.7 km/h 81% 0.0 mm 70 W/m2
09:11 19.1 °C 15.8 °C 1014.6 hPa WNW 4.7 km/h 14.5 km/h 81% 0.0 mm 62 W/m2
09:16 19.1 °C 15.8 °C 1014.9 hPa West 3.2 km/h 14.5 km/h 81% 0.0 mm 76 W/m2
09:21 19.3 °C 16.1 °C 1014.6 hPa WNW 6.4 km/h 22.5 km/h 82% 0.0 mm 79 W/m2
09:26 19.5 °C 16.2 °C 1014.9 hPa West 9.7 km/h 24.1 km/h 81% 0.0 mm 69 W/m2
09:31 19.6 °C 16.2 °C 1014.9 hPa WNW 7.9 km/h 17.7 km/h 81% 0.0 mm 86 W/m2
09:36 19.6 °C 16.2 °C 1014.9 hPa West 11.1 km/h 14.5 km/h 81% 0.0 mm 142 W/m2
09:41 19.6 °C 16.2 °C 1014.9 hPa West 4.7 km/h 14.5 km/h 81% 0.0 mm 181 W/m2
09:46 19.6 °C 16.2 °C 1014.9 hPa WNW 19.5 km/h 19.3 km/h 81% 0.0 mm 142 W/m2
09:51 19.6 °C 16.1 °C 1015.2 hPa WNW 11.1 km/h 19.3 km/h 80% 0.0 mm 134 W/m2
09:56 19.5 °C 16 °C 1015.2 hPa NW 20.9 km/h 20.9 km/h 80% 0.0 mm 127 W/m2
10:01 19.5 °C 16 °C 1015.2 hPa WNW 13 km/h 17.7 km/h 80% 0.0 mm 102 W/m2
10:06 19.4 °C 15.9 °C 1015.2 hPa WNW 6.4 km/h 19.3 km/h 80% 0.0 mm 102 W/m2
10:11 19.3 °C 15.8 °C 1015.2 hPa West 6.4 km/h 19.3 km/h 80% 0.0 mm 118 W/m2
10:16 19.3 °C 16 °C 1015.2 hPa WNW 6.4 km/h 16.1 km/h 81% 0.0 mm 158 W/m2
10:21 19.4 °C 16.1 °C 1015.2 hPa WNW 7.9 km/h 22.5 km/h 81% 0.0 mm 206 W/m2
10:26 19.5 °C 16.2 °C 1015.6 hPa NW 7.9 km/h 12.9 km/h 81% 0.0 mm 251 W/m2
10:31 19.6 °C 16.2 °C 1015.6 hPa WNW 1.4 km/h 19.3 km/h 81% 0.0 mm 279 W/m2
10:36 19.8 °C 16.4 °C 1015.9 hPa WNW 7.9 km/h 14.5 km/h 81% 0.0 mm 271 W/m2
10:41 19.9 °C 16.3 °C 1015.9 hPa WNW 7.9 km/h 16.1 km/h 80% 0.0 mm 216 W/m2
10:46 19.8 °C 16.2 °C 1015.9 hPa WNW 7.9 km/h 16.1 km/h 80% 0.0 mm 229 W/m2
10:51 19.7 °C 16.3 °C 1015.9 hPa NW 3.2 km/h 14.5 km/h 81% 0.0 mm 234 W/m2
10:56 19.7 °C 16.3 °C 1016.3 hPa NNW 4.7 km/h 14.5 km/h 81% 0.0 mm 216 W/m2
11:01 19.7 °C 16.3 °C 1016.3 hPa West 16.3 km/h 16.1 km/h 81% 0.0 mm 244 W/m2
11:06 19.7 °C 16.2 °C 1016.3 hPa WNW 19.5 km/h 19.3 km/h 80% 0.0 mm 202 W/m2
11:11 19.7 °C 16.2 °C 1016.3 hPa WNW 19.5 km/h 19.3 km/h 80% 0.0 mm 211 W/m2
11:16 19.6 °C 16.1 °C 1016.3 hPa WNW 11.1 km/h 20.9 km/h 80% 0.0 mm 223 W/m2
11:21 19.5 °C 16 °C 1016.6 hPa NNW 24.1 km/h 24.1 km/h 80% 0.0 mm 250 W/m2
11:26 19.4 °C 15.9 °C 1016.6 hPa WNW 9.7 km/h 17.7 km/h 80% 0.0 mm 221 W/m2
11:31 19.3 °C 15.8 °C 1016.6 hPa West 14.3 km/h 14.5 km/h 80% 0.0 mm 204 W/m2
11:36 19.3 °C 15.8 °C 1016.9 hPa WNW 1.4 km/h 14.5 km/h 80% 0.0 mm 174 W/m2
11:41 19.4 °C 16.1 °C 1016.9 hPa NNW 7.9 km/h 17.7 km/h 81% 0.0 mm 216 W/m2
11:46 19.4 °C 15.9 °C 1016.9 hPa WNW 3.2 km/h 16.1 km/h 80% 0.0 mm 172 W/m2
11:51 19.5 °C 16.2 °C 1016.9 hPa Calm   17.7 km/h 81% 0.0 mm 139 W/m2
11:56 19.5 °C 16 °C 1017.3 hPa WNW 3.2 km/h 12.9 km/h 80% 0.0 mm 141 W/m2
12:01 19.4 °C 15.9 °C 1016.9 hPa WSW 4.7 km/h 6.4 km/h 80% 0.0 mm 114 W/m2
12:06 19.3 °C 15.8 °C 1017.3 hPa NW 4.7 km/h 14.5 km/h 80% 0.0 mm 125 W/m2
12:11 19.1 °C 15.8 °C 1017.3 hPa WSW 6.4 km/h 12.9 km/h 81% 0.0 mm 116 W/m2
12:16 19 °C 15.7 °C 1017.3 hPa NNW 1.4 km/h 14.5 km/h 81% 0.0 mm 98 W/m2
12:21 18.9 °C 15.8 °C 1017.6 hPa WNW 6.4 km/h 8 km/h 82% 0.0 mm 93 W/m2
12:26 18.8 °C 15.7 °C 1017.6 hPa WNW 3.2 km/h 8 km/h 82% 0.0 mm 88 W/m2
12:31 18.7 °C 15.8 °C 1017.6 hPa NW 6.4 km/h 8 km/h 83% 0.0 mm 97 W/m2
12:36 18.6 °C 15.7 °C 1017.6 hPa SW 4.7 km/h 17.7 km/h 83% 0.0 mm 90 W/m2
12:41 18.5 °C 15.6 °C 1017.6 hPa West 6.4 km/h 12.9 km/h 83% 0.0 mm 77 W/m2
12:46 18.4 °C 15.5 °C 1017.6 hPa West 1.4 km/h 12.9 km/h 83% 0.0 mm 74 W/m2
12:51 18.4 °C 15.6 °C 1017.6 hPa SW 1.4 km/h 4.8 km/h 84% 0.0 mm 81 W/m2
12:56 18.4 °C 15.6 °C 1017.6 hPa WNW 3.2 km/h 4.8 km/h 84% 0.0 mm 102 W/m2
13:01 18.3 °C 15.7 °C 1017.6 hPa West 3.2 km/h 12.9 km/h 85% 0.0 mm 95 W/m2
13:06 18.2 °C 15.8 °C 1017.6 hPa WNW 6.4 km/h 11.3 km/h 86% 0.0 mm 95 W/m2
13:11 18.1 °C 15.7 °C 1017.6 hPa West 3.2 km/h 9.7 km/h 86% 0.2 mm 100 W/m2
13:16 17.9 °C 15.7 °C 1017.6 hPa NW 3.2 km/h 11.3 km/h 87% 0.2 mm 116 W/m2
13:21 17.9 °C 15.7 °C 1017.6 hPa WNW 7.9 km/h 8 km/h 87% 0.2 mm 127 W/m2
13:26 17.8 °C 15.6 °C 1018.0 hPa WNW 13 km/h 12.9 km/h 87% 0.2 mm 132 W/m2
13:31 17.8 °C 15.6 °C 1018.0 hPa West 4.7 km/h 9.7 km/h 87% 0.2 mm 144 W/m2
13:36 17.8 °C 15.8 °C 1018.0 hPa WNW 3.2 km/h 6.4 km/h 88% 0.2 mm 142 W/m2
13:41 17.8 °C 15.8 °C 1018.0 hPa West 4.7 km/h 6.4 km/h 88% 0.2 mm 148 W/m2
13:46 17.7 °C 15.7 °C 1018.0 hPa WSW 4.7 km/h 14.5 km/h 88% 0.2 mm 155 W/m2
13:51 17.8 °C 15.8 °C 1018.0 hPa West 4.7 km/h 9.7 km/h 88% 0.2 mm 207 W/m2
13:56 17.8 °C 15.8 °C 1018.0 hPa WSW 14.3 km/h 16.1 km/h 88% 0.2 mm 272 W/m2
14:01 17.9 °C 15.9 °C 1018.0 hPa West 4.7 km/h 9.7 km/h 88% 0.2 mm 278 W/m2
14:06 18.1 °C 16.1 °C 1018.0 hPa West 6.4 km/h 11.3 km/h 88% 0.2 mm 255 W/m2
14:11 18.2 °C 16 °C 1018.0 hPa West 3.2 km/h 8 km/h 87% 0.0 mm 237 W/m2
14:16 18.3 °C 16.1 °C 1018.0 hPa WNW 6.4 km/h 9.7 km/h 87% 0.0 mm 218 W/m2
14:21 18.3 °C 15.9 °C 1018.0 hPa NW 6.4 km/h 14.5 km/h 86% 0.0 mm 220 W/m2
14:26 18.4 °C 16 °C 1018.0 hPa WNW 4.7 km/h 14.5 km/h 86% 0.0 mm 216 W/m2
14:31 18.4 °C 16 °C 1018.0 hPa West 6.4 km/h 9.7 km/h 86% 0.0 mm 211 W/m2
14:36 18.6 °C 16 °C 1018.0 hPa WNW 3.2 km/h 11.3 km/h 85% 0.0 mm 204 W/m2
14:41 18.6 °C 16 °C 1018.0 hPa WNW 4.7 km/h 12.9 km/h 85% 0.0 mm 179 W/m2
14:46 18.6 °C 16 °C 1018.0 hPa WNW 6.4 km/h 12.9 km/h 85% 0.0 mm 171 W/m2
14:51 18.6 °C 15.8 °C 1018.0 hPa NW 6.4 km/h 11.3 km/h 84% 0.0 mm 158 W/m2
14:56 18.6 °C 15.8 °C 1018.0 hPa West 9.7 km/h 9.7 km/h 84% 0.0 mm 146 W/m2
15:01 18.6 °C 16 °C 1018.0 hPa West 4.7 km/h 8 km/h 85% 0.0 mm 155 W/m2
15:06 18.6 °C 16 °C 1017.6 hPa WNW 7.9 km/h 11.3 km/h 85% 0.0 mm 171 W/m2
15:11 18.5 °C 15.9 °C 1017.6 hPa WNW 1.4 km/h 6.4 km/h 85% 0.0 mm 197 W/m2
15:16 18.5 °C 16.1 °C 1017.6 hPa NW 1.4 km/h 1.6 km/h 86% 0.0 mm 246 W/m2
15:21 18.6 °C 16.2 °C 1017.6 hPa WSW 3.2 km/h 8 km/h 86% 0.0 mm 323 W/m2
15:26 18.7 °C 16.3 °C 1017.6 hPa West 6.4 km/h 12.9 km/h 86% 0.0 mm 422 W/m2
15:31 18.8 °C 16.2 °C 1017.6 hPa WSW 4.7 km/h 11.3 km/h 85% 0.0 mm 705 W/m2
15:36 19.2 °C 16.2 °C 1017.6 hPa WSW 4.7 km/h 12.9 km/h 83% 0.0 mm 675 W/m2
15:41 19.7 °C 16 °C 1017.6 hPa NW 11.1 km/h 16.1 km/h 79% 0.0 mm 800 W/m2
15:46 20.2 °C 16.4 °C 1017.6 hPa WNW 6.4 km/h 16.1 km/h 79% 0.0 mm 759 W/m2
15:51 20.4 °C 16 °C 1017.6 hPa WSW 4.7 km/h 14.5 km/h 76% 0.0 mm 809 W/m2
15:56 20.8 °C 16.4 °C 1017.6 hPa West 9.7 km/h 11.3 km/h 76% 0.0 mm 860 W/m2
16:01 21 °C 16.2 °C 1017.6 hPa WNW 6.4 km/h 9.7 km/h 74% 0.0 mm 809 W/m2
16:06 21.2 °C 16.4 °C 1017.6 hPa West 9.7 km/h 11.3 km/h 74% 0.0 mm 768 W/m2
16:11 21.3 °C 15.8 °C 1017.6 hPa WNW 3.2 km/h 9.7 km/h 71% 0.0 mm 471 W/m2
16:16 21.1 °C 15.9 °C 1017.6 hPa West 11.1 km/h 16.1 km/h 72% 0.0 mm 401 W/m2
16:21 21 °C 16 °C 1018.0 hPa West 6.4 km/h 12.9 km/h 73% 0.0 mm 364 W/m2
16:26 20.8 °C 15.8 °C 1018.0 hPa West 9.7 km/h 20.9 km/h 73% 0.0 mm 346 W/m2
16:31 20.6 °C 15.8 °C 1018.0 hPa West 1.4 km/h 12.9 km/h 74% 0.0 mm 301 W/m2
16:36 20.4 °C 15.6 °C 1018.0 hPa WSW 6.4 km/h 12.9 km/h 74% 0.0 mm 274 W/m2
16:41 20.4 °C 15.8 °C 1018.0 hPa WNW 6.4 km/h 17.7 km/h 75% 0.0 mm 459 W/m2
16:46 20.6 °C 16 °C 1017.6 hPa SW 3.2 km/h 6.4 km/h 75% 0.0 mm 547 W/m2
16:51 20.8 °C 16 °C 1017.6 hPa NW 7.9 km/h 16.1 km/h 74% 0.0 mm 555 W/m2
16:56 20.9 °C 16.1 °C 1017.6 hPa West 1.4 km/h 14.5 km/h 74% 0.0 mm 612 W/m2
17:01 21.1 °C 16.1 °C 1017.6 hPa West 9.7 km/h 11.3 km/h 73% 0.0 mm 740 W/m2
17:11 21.7 °C 15.5 °C 1018.0 hPa SW 6.4 km/h 19.3 km/h 68% 0.0 mm 729 W/m2
17:16 21.7 °C 15.8 °C 1017.6 hPa WSW 13 km/h 16.1 km/h 69% 0.0 mm 629 W/m2
17:21 21.8 °C 15.9 °C 1017.6 hPa West 3.2 km/h 19.3 km/h 69% 0.0 mm 603 W/m2
17:26 22.1 °C 15.9 °C 1017.6 hPa WNW 4.7 km/h 17.7 km/h 68% 0.0 mm 642 W/m2
17:31 21.9 °C 15 °C 1017.6 hPa WSW 4.7 km/h 12.9 km/h 65% 0.0 mm 628 W/m2
17:36 22.1 °C 15.4 °C 1017.6 hPa WNW 4.7 km/h 17.7 km/h 66% 0.0 mm 570 W/m2
17:41 22.3 °C 15.2 °C 1017.6 hPa WNW 17.7 km/h 17.7 km/h 64% 0.0 mm 548 W/m2
17:46 22.2 °C 15.3 °C 1017.6 hPa WNW 3.2 km/h 4.8 km/h 65% 0.0 mm 506 W/m2
17:51 22.3 °C 15.2 °C 1017.6 hPa NW 4.7 km/h 11.3 km/h 64% 0.0 mm 522 W/m2
17:56 22.3 °C 14.9 °C 1017.6 hPa WNW 4.7 km/h 12.9 km/h 63% 0.0 mm 508 W/m2
18:01 22.5 °C 15.3 °C 1017.3 hPa SSE 3.2 km/h 4.8 km/h 64% 0.0 mm 485 W/m2
18:06 22.7 °C 15 °C 1017.6 hPa WSW 7.9 km/h 16.1 km/h 62% 0.0 mm 473 W/m2
18:11 22.7 °C 15.3 °C 1017.6 hPa West 13 km/h 12.9 km/h 63% 0.0 mm 448 W/m2
18:16 22.7 °C 15 °C 1017.6 hPa WSW 6.4 km/h 11.3 km/h 62% 0.0 mm 436 W/m2
18:21 22.6 °C 14.9 °C 1017.6 hPa NNW 4.7 km/h 9.7 km/h 62% 0.0 mm 457 W/m2
18:26 22.7 °C 15 °C 1017.6 hPa Calm   3.2 km/h 62% 0.0 mm 211 W/m2
18:31 22.6 °C 15.2 °C 1017.6 hPa WNW 4.7 km/h 11.3 km/h 63% 0.0 mm 95 W/m2
18:36 22.2 °C 15.1 °C 1017.6 hPa WSW 3.2 km/h 6.4 km/h 64% 0.0 mm 149 W/m2
18:41 22.2 °C 15.3 °C 1017.6 hPa Calm   6.4 km/h 65% 0.0 mm 134 W/m2
18:46 22.4 °C 15.3 °C 1017.6 hPa WSW 6.4 km/h 6.4 km/h 64% 0.0 mm 79 W/m2
18:51 22.3 °C 15.2 °C 1017.6 hPa West 3.2 km/h 6.4 km/h 64% 0.0 mm 54 W/m2
18:56 21.9 °C 15 °C 1017.6 hPa West 1.4 km/h 6.4 km/h 65% 0.0 mm 74 W/m2
19:01 21.7 °C 15.1 °C 1017.6 hPa West 3.2 km/h 6.4 km/h 66% 0.0 mm 111 W/m2
19:06 21.8 °C 15.4 °C 1017.6 hPa West 1.4 km/h 4.8 km/h 67% 0.0 mm 81 W/m2
19:11 22.1 °C 15.4 °C 1018.0 hPa West 1.4 km/h 3.2 km/h 66% 0.0 mm 79 W/m2
19:16 22.2 °C 15.3 °C 1017.6 hPa West 3.2 km/h 9.7 km/h 65% 0.0 mm 86 W/m2
19:21 22.2 °C 15.5 °C 1017.6 hPa West 3.2 km/h 4.8 km/h 66% 0.0 mm 77 W/m2
19:31 22.4 °C 15.3 °C 1018.0 hPa WSW 6.4 km/h 12.9 km/h 64% 0.0 mm 67 W/m2
19:36 22.4 °C 15.5 °C 1018.0 hPa WSW 3.2 km/h 4.8 km/h 65% 0.0 mm 62 W/m2
19:41 22.2 °C 15.3 °C 1018.0 hPa West 4.7 km/h 12.9 km/h 65% 0.0 mm 62 W/m2
19:46 22.1 °C 15.4 °C 1018.0 hPa WNW 7.9 km/h 8 km/h 66% 0.0 mm 54 W/m2
19:51 21.8 °C 15.2 °C 1018.0 hPa West 4.7 km/h 6.4 km/h 66% 0.0 mm 49 W/m2
19:56 21.7 °C 15.3 °C 1018.0 hPa WSW 1.4 km/h 4.8 km/h 67% 0.0 mm 46 W/m2
20:01 21.7 °C 15.3 °C 1018.0 hPa West 4.7 km/h 9.7 km/h 67% 0.0 mm 63 W/m2
20:06 21.6 °C 15.4 °C 1018.0 hPa West 3.2 km/h 4.8 km/h 68% 0.0 mm 40 W/m2
20:11 21.4 °C 15.2 °C 1018.0 hPa Calm   9.7 km/h 68% 0.0 mm 37 W/m2
20:16 21.3 °C 15.4 °C 1018.0 hPa Calm   3.2 km/h 69% 0.0 mm 35 W/m2
20:21 21.3 °C 16 °C 1018.3 hPa West 1.4 km/h 1.6 km/h 72% 0.0 mm 32 W/m2
20:26 21.1 °C 15.9 °C 1018.3 hPa West 1.4 km/h 1.6 km/h 72% 0.0 mm 28 W/m2
20:31 20.9 °C 15.9 °C 1018.3 hPa Calm   1.6 km/h 73% 0.0 mm 26 W/m2
20:36 20.7 °C 15.9 °C 1018.3 hPa Calm   1.6 km/h 74% 0.0 mm 25 W/m2
20:41 20.4 °C 15.8 °C 1018.3 hPa Calm   1.6 km/h 75% 0.0 mm 21 W/m2
20:46 20.2 °C 15.8 °C 1018.3 hPa Calm   1.6 km/h 76% 0.0 mm 19 W/m2
20:51 19.9 °C 15.5 °C 1018.6 hPa Calm   1.6 km/h 76% 0.0 mm 14 W/m2
20:56 19.7 °C 15.6 °C 1018.6 hPa Calm     77% 0.0 mm 12 W/m2
21:01 19.4 °C 15.3 °C 1018.6 hPa West 1.4 km/h 3.2 km/h 77% 0.0 mm 9 W/m2
21:06 19.3 °C 15.4 °C 1018.6 hPa Calm   1.6 km/h 78% 0.0 mm 7 W/m2
21:11 19.1 °C 15.2 °C 1019.0 hPa Calm   3.2 km/h 78% 0.0 mm 5 W/m2
21:16 18.9 °C 15.2 °C 1019.0 hPa Calm     79% 0.0 mm 0 W/m2
21:21 18.8 °C 15.1 °C 1019.0 hPa West 3.2 km/h 3.2 km/h 79% 0.0 mm 0 W/m2
21:26 18.7 °C 15.2 °C 1019.0 hPa Calm   1.6 km/h 80% 0.0 mm 0 W/m2
21:31 18.5 °C 15 °C 1019.0 hPa Calm     80% 0.0 mm 0 W/m2
21:36 18.4 °C 15.1 °C 1019.0 hPa Calm   1.6 km/h 81% 0.0 mm 0 W/m2
21:41 18.2 °C 14.9 °C 1019.3 hPa Calm     81% 0.0 mm 0 W/m2
21:46 18.1 °C 14.8 °C 1019.3 hPa Calm   1.6 km/h 81% 0.0 mm 0 W/m2
21:51 18 °C 14.9 °C 1019.3 hPa Calm     82% 0.0 mm 0 W/m2
21:56 17.8 °C 14.7 °C 1019.3 hPa Calm     82% 0.0 mm 0 W/m2
22:01 17.7 °C 14.6 °C 1019.3 hPa Calm     82% 0.0 mm 0 W/m2
22:06 17.6 °C 14.7 °C 1019.3 hPa Calm     83% 0.0 mm 0 W/m2
22:11 17.4 °C 14.5 °C 1019.3 hPa Calm     83% 0.0 mm 0 W/m2
22:16 17.3 °C 14.4 °C 1019.3 hPa Calm     83% 0.0 mm 0 W/m2
22:22 17.2 °C 14.5 °C 1019.3 hPa Calm     84% 0.0 mm 0 W/m2
22:27 16.9 °C 14.2 °C 1019.3 hPa Calm     84% 0.0 mm 0 W/m2
22:32 16.8 °C 14.3 °C 1019.3 hPa Calm     85% 0.0 mm 0 W/m2
22:37 16.7 °C 14.2 °C 1019.3 hPa Calm     85% 0.0 mm 0 W/m2
22:42 16.5 °C 14.1 °C 1019.3 hPa Calm     86% 0.0 mm 0 W/m2
22:47 16.4 °C 14.1 °C 1019.3 hPa Calm     86% 0.0 mm 0 W/m2
22:52 16.2 °C 14 °C 1019.3 hPa Calm     87% 0.0 mm 0 W/m2
22:57 16.2 °C 14 °C 1019.3 hPa Calm     87% 0.0 mm 0 W/m2
23:02 16.1 °C 14.1 °C 1019.6 hPa Calm     88% 0.0 mm 0 W/m2
23:07 16.1 °C 14.1 °C 1019.6 hPa Calm   3.2 km/h 88% 0.0 mm 0 W/m2
23:12 15.9 °C 13.9 °C 1019.3 hPa Calm     88% 0.0 mm 0 W/m2
23:17 15.9 °C 13.9 °C 1019.3 hPa Calm   3.2 km/h 88% 0.0 mm 0 W/m2
23:22 15.8 °C 13.8 °C 1019.3 hPa Calm   1.6 km/h 88% 0.0 mm 0 W/m2
23:27 15.7 °C 13.7 °C 1019.6 hPa Calm     88% 0.0 mm 0 W/m2
23:32 15.6 °C 13.6 °C 1019.6 hPa Calm   1.6 km/h 88% 0.0 mm 0 W/m2
23:37 15.5 °C 13.5 °C 1019.6 hPa Calm     88% 0.0 mm 0 W/m2
23:42 15.4 °C 13.6 °C 1019.6 hPa Calm     89% 0.0 mm 0 W/m2
23:47 15.3 °C 13.5 °C 1019.6 hPa Calm     89% 0.0 mm 0 W/m2
23:52 15.3 °C 13.5 °C 1019.6 hPa Calm     89% 0.0 mm 0 W/m2
23:57 15.2 °C 13.6 °C 1019.6 hPa Calm     90% 0.0 mm 0 W/m2
Juneau County Weather
Compliments of Weather Underground - 4 mb